Time;durP1;ratioP1;P1;durP2;ratioP2;P2;SDS_P1;SDS_P2;PMS_P1;PMS_P2;Temp;Humidity;BMP_temperature;BMP_pressure;BME280_temperature;BME280_humidity;BME280_pressure;Samples;Min_cycle;Max_cycle;Signal;HPM_P1;HPM_P2
2021/05/26 00:01:41;;;;;;;0.13;0.13;;;;;;;9.19;60.82;98866.16;128456;1108;115667;-82
2021/05/26 00:04:08;;;;;;;0.20;0.20;;;;;;;9.19;60.58;98862.67;128495;1108;115604;-82
2021/05/26 00:06:34;;;;;;;0.20;0.20;;;;;;;9.18;60.02;98867.25;128465;1107;115310;-82
2021/05/26 00:09:00;;;;;;;0.20;0.20;;;;;;;9.16;60.19;98864.07;128486;1107;115839;-82
2021/05/26 00:11:27;;;;;;;0.10;0.10;;;;;;;9.15;60.04;98867.03;129324;1108;22555;-83
2021/05/26 00:13:53;;;;;;;0.20;0.20;;;;;;;9.09;60.16;98867.09;128501;1107;115231;-82
2021/05/26 00:16:20;;;;;;;0.10;0.10;;;;;;;9.06;59.96;98858.81;128449;1107;115793;-83
2021/05/26 00:18:46;;;;;;;0.10;0.10;;;;;;;9.02;60.17;98863.95;128470;1108;116264;-83
2021/05/26 00:21:12;;;;;;;0.10;0.10;;;;;;;9.00;60.30;98868.00;128452;1108;116262;-83
2021/05/26 00:23:38;;;;;;;0.25;0.25;;;;;;;8.94;60.60;98853.05;129318;1108;22512;-84
2021/05/26 00:26:05;;;;;;;0.20;0.20;;;;;;;8.88;60.53;98848.81;128502;1108;115880;-83
2021/05/26 00:28:31;;;;;;;0.10;0.10;;;;;;;8.82;61.19;98854.24;128430;1107;115283;-83
2021/05/26 00:30:58;;;;;;;0.20;0.20;;;;;;;8.75;60.93;98850.30;128453;1108;115726;-83
2021/05/26 00:33:25;;;;;;;0.20;0.20;;;;;;;8.68;61.25;98857.89;128509;1108;116258;-83
2021/05/26 00:35:51;;;;;;;0.20;0.20;;;;;;;8.62;61.24;98842.94;128450;1107;115662;-83
2021/05/26 00:38:18;;;;;;;0.20;0.20;;;;;;;8.56;61.25;98842.17;128681;1108;22555;-84
2021/05/26 00:40:44;;;;;;;0.23;0.10;;;;;;;8.51;61.21;98842.23;128461;1108;115025;-83
2021/05/26 00:43:11;;;;;;;0.03;0.03;;;;;;;8.49;61.35;98844.38;128501;1108;115386;-83
2021/05/26 00:45:37;;;;;;;0.20;0.20;;;;;;;8.45;61.37;98832.62;128486;1108;115254;-83
2021/05/26 00:48:04;;;;;;;0.13;0.13;;;;;;;8.41;61.67;98837.78;128552;1107;116387;-83
2021/05/26 00:50:33;;;;;;;0.28;0.28;;;;;;;8.38;62.19;98826.81;129347;1108;22532;-83
2021/05/26 00:53:08;;;;;;;0.10;0.10;;;;;;;8.34;61.75;98826.55;128500;1107;115026;-83
2021/05/26 00:55:36;;;;;;;0.18;0.18;;;;;;;8.34;62.89;98824.66;128516;1107;115001;-83
2021/05/26 00:58:03;;;;;;;0.10;0.10;;;;;;;8.38;63.49;98838.34;128466;1108;115412;-83
2021/05/26 01:00:30;;;;;;;0.20;0.20;;;;;;;8.40;63.12;98824.63;128482;1108;115277;-83
2021/05/26 01:02:57;;;;;;;0.30;0.30;;;;;;;8.42;63.29;98822.47;128483;1106;115401;-83
2021/05/26 01:05:25;;;;;;;0.10;0.10;;;;;;;8.42;63.35;98820.59;129277;1108;22503;-83
2021/05/26 01:07:52;;;;;;;0.10;0.10;;;;;;;8.43;62.94;98811.45;128487;1108;115640;-83
2021/05/26 01:10:21;;;;;;;0.43;0.35;;;;;;;8.43;63.43;98818.70;128486;1108;115604;-83
2021/05/26 01:12:47;;;;;;;0.10;0.10;;;;;;;8.42;63.05;98817.91;128512;1108;115871;-84
2021/05/26 01:15:16;;;;;;;0.30;0.30;;;;;;;8.40;63.25;98812.00;128455;1108;115520;-83
2021/05/26 01:17:43;;;;;;;0.20;0.20;;;;;;;8.40;62.98;98813.89;128530;1107;116992;-83
2021/05/26 01:20:12;;;;;;;0.10;0.10;;;;;;;8.37;62.84;98823.33;129299;1107;23128;-82
2021/05/26 01:22:39;;;;;;;0.10;0.10;;;;;;;8.35;63.16;98812.83;128480;1108;114759;-82
2021/05/26 01:25:07;;;;;;;0.00;0.00;;;;;;;8.33;62.76;98816.88;128463;1108;115647;-82
2021/05/26 01:27:36;;;;;;;0.20;0.20;;;;;;;8.28;63.28;98806.99;128485;1108;115297;-82
2021/05/26 01:30:06;;;;;;;0.10;0.10;;;;;;;8.26;63.09;98816.42;128479;1108;115430;-82
2021/05/26 01:32:41;;;;;;;0.10;0.10;;;;;;;8.22;63.23;98810.83;129280;1108;22491;-82
2021/05/26 01:35:09;;;;;;;0.00;0.00;;;;;;;8.18;63.09;98812.47;128895;1108;22609;-82
2021/05/26 01:37:40;;;;;;;0.10;0.10;;;;;;;8.15;63.19;98820.28;128516;1107;116059;-83
2021/05/26 01:40:08;;;;;;;0.20;0.20;;;;;;;8.10;63.42;98807.72;128521;1107;115937;-83
2021/05/26 01:42:35;;;;;;;0.20;0.20;;;;;;;8.07;63.36;98806.39;128553;1108;115762;-83
2021/05/26 01:45:03;;;;;;;0.20;0.20;;;;;;;8.02;63.55;98813.69;128527;1107;115252;-83
2021/05/26 01:47:29;;;;;;;0.10;0.10;;;;;;;7.98;63.42;98813.45;129293;1108;22632;-83
2021/05/26 01:49:55;;;;;;;0.10;0.10;;;;;;;7.95;63.38;98818.58;128503;1108;116135;-82
2021/05/26 01:52:21;;;;;;;0.10;0.10;;;;;;;7.91;64.45;98823.70;128465;1108;115854;-83
2021/05/26 01:54:47;;;;;;;0.18;0.10;;;;;;;7.92;64.20;98819.13;128501;1107;115458;-83
2021/05/26 01:57:13;;;;;;;0.30;0.30;;;;;;;7.93;64.86;98824.20;128479;1107;116240;-83
2021/05/26 01:59:42;;;;;;;0.10;0.10;;;;;;;7.97;65.12;98827.13;129341;1108;22525;-83
2021/05/26 02:02:09;;;;;;;0.15;0.15;;;;;;;7.97;64.93;98827.13;129327;1107;22642;-83
2021/05/26 02:04:35;;;;;;;0.10;0.10;;;;;;;7.97;65.34;98835.97;128514;1107;115666;-83
2021/05/26 02:07:12;;;;;;;0.08;0.08;;;;;;;7.96;65.10;98833.58;128524;1107;115296;-84
2021/05/26 02:09:39;;;;;;;0.20;0.20;;;;;;;7.95;64.75;98824.73;128496;1108;116109;-83
2021/05/26 02:12:22;;;;;;;0.10;0.10;;;;;;;7.93;64.93;98829.56;128483;1108;116459;-83
2021/05/26 02:14:56;;;;;;;0.10;0.10;;;;;;;7.90;65.14;98840.88;128456;1108;115826;-83
2021/05/26 02:17:23;;;;;;;0.10;0.10;;;;;;;7.86;64.94;98837.15;129327;1108;22535;-84
2021/05/26 02:19:50;;;;;;;0.20;0.20;;;;;;;7.80;65.25;98836.37;128486;1107;115189;-84
2021/05/26 02:22:17;;;;;;;0.20;0.20;;;;;;;7.76;64.95;98834.53;128470;1108;115122;-84
2021/05/26 02:24:44;;;;;;;0.10;0.10;;;;;;;7.71;65.12;98834.58;128479;1107;115862;-83
2021/05/26 02:27:10;;;;;;;0.28;0.28;;;;;;;7.66;65.12;98840.75;128477;1108;115324;-83
2021/05/26 02:29:36;;;;;;;0.08;0.08;;;;;;;7.60;65.23;98853.39;129366;1108;22509;-83
2021/05/26 02:32:05;;;;;;;0.00;0.00;;;;;;;7.55;65.44;98848.07;128522;1107;114720;-84
2021/05/26 02:34:31;;;;;;;0.10;0.10;;;;;;;7.50;65.56;98847.28;128504;1107;115482;-84
2021/05/26 02:36:58;;;;;;;0.08;0.08;;;;;;;7.46;65.58;98840.88;128504;1108;115073;-84
2021/05/26 02:39:24;;;;;;;0.10;0.10;;;;;;;7.41;65.30;98835.55;128471;1108;115362;-84
2021/05/26 02:41:50;;;;;;;0.00;0.00;;;;;;;7.38;65.77;98840.38;128509;1107;115558;-84
2021/05/26 02:44:17;;;;;;;0.20;0.20;;;;;;;7.38;66.06;98835.02;129308;1108;22532;-83
2021/05/26 02:46:44;;;;;;;0.33;0.30;;;;;;;7.42;66.53;98831.80;128474;1107;114995;-83
2021/05/26 02:49:11;;;;;;;0.15;0.15;;;;;;;7.46;66.87;98838.20;128483;1107;115798;-83
2021/05/26 02:51:38;;;;;;;0.20;0.20;;;;;;;7.48;66.71;98828.81;128497;1108;115387;-83
2021/05/26 02:54:06;;;;;;;0.10;0.10;;;;;;;7.50;66.51;98834.68;128483;1107;115518;-83
2021/05/26 02:56:32;;;;;;;0.03;0.03;;;;;;;7.52;66.59;98839.78;129359;1107;23040;-84
2021/05/26 02:58:58;;;;;;;0.20;0.20;;;;;;;7.50;66.08;98842.72;128493;1108;114920;-83
2021/05/26 03:01:25;;;;;;;0.20;0.20;;;;;;;7.53;66.11;98862.81;128481;1108;115482;-83
2021/05/26 03:03:51;;;;;;;0.10;0.10;;;;;;;7.52;66.30;98861.22;128504;1108;116315;-83
2021/05/26 03:06:17;;;;;;;0.20;0.20;;;;;;;7.50;66.21;98868.72;128462;1107;115827;-84
2021/05/26 03:08:44;;;;;;;0.10;0.10;;;;;;;7.50;66.38;98863.36;128473;1107;115849;-83
2021/05/26 03:11:10;;;;;;;0.10;0.10;;;;;;;7.47;66.66;98862.05;129331;1108;23286;-83
2021/05/26 03:13:36;;;;;;;0.10;0.10;;;;;;;7.45;66.59;98861.52;128489;1108;115973;-83
2021/05/26 03:16:03;;;;;;;0.10;0.10;;;;;;;7.44;66.33;98869.84;128484;1108;115105;-84
2021/05/26 03:18:29;;;;;;;0.20;0.20;;;;;;;7.38;66.56;98872.52;128449;1108;115427;-84
2021/05/26 03:20:56;;;;;;;0.20;0.20;;;;;;;7.33;66.41;98869.88;128488;1107;115264;-83
2021/05/26 03:23:22;;;;;;;0.20;0.20;;;;;;;7.27;66.69;98872.84;129340;1108;23439;-84
2021/05/26 03:25:48;;;;;;;0.15;0.15;;;;;;;7.23;66.61;98871.80;128489;1108;115713;-83
2021/05/26 03:28:19;;;;;;;0.20;0.20;;;;;;;7.22;66.79;98886.27;128484;1107;115793;-83
2021/05/26 03:30:46;;;;;;;0.00;0.00;;;;;;;7.23;67.29;98883.34;128424;1108;115702;-84
2021/05/26 03:33:13;;;;;;;0.10;0.10;;;;;;;7.28;67.53;98887.87;128447;1107;114980;-84
2021/05/26 03:35:42;;;;;;;0.10;0.10;;;;;;;7.30;67.52;98878.45;129337;1108;22531;-83
2021/05/26 03:38:09;;;;;;;0.10;0.10;;;;;;;7.36;67.88;98884.61;129304;1108;22607;-84
2021/05/26 03:40:37;;;;;;;0.03;0.03;;;;;;;7.40;67.62;98884.86;128465;1108;115810;-84
2021/05/26 03:43:04;;;;;;;0.10;0.10;;;;;;;7.44;67.68;98888.59;128434;1108;115728;-84
2021/05/26 03:45:31;;;;;;;0.08;0.08;;;;;;;7.46;67.49;98889.91;128441;1108;115433;-84
2021/05/26 03:47:57;;;;;;;0.20;0.20;;;;;;;7.48;67.23;98877.05;128511;1107;115778;-83
2021/05/26 03:50:25;;;;;;;0.10;0.10;;;;;;;7.45;67.42;98882.95;129284;1108;23102;-83
2021/05/26 03:52:51;;;;;;;0.10;0.10;;;;;;;7.46;67.29;98876.50;128525;1107;115109;-84
2021/05/26 03:55:19;;;;;;;0.10;0.10;;;;;;;7.46;67.28;98875.70;128511;1107;115931;-84
2021/05/26 03:57:47;;;;;;;0.10;0.10;;;;;;;7.45;67.45;98876.80;128486;1107;116074;-84
2021/05/26 04:00:15;;;;;;;0.10;0.10;;;;;;;7.45;67.60;98879.47;128479;1108;116120;-84
2021/05/26 04:02:42;;;;;;;0.10;0.10;;;;;;;7.45;67.75;98885.63;128539;1108;115379;-84
2021/05/26 04:05:09;;;;;;;0.05;0.05;;;;;;;7.45;68.00;98884.83;129340;1108;23325;-84
2021/05/26 04:07:35;;;;;;;0.10;0.10;;;;;;;7.45;67.17;98879.47;128448;1108;115475;-84
2021/05/26 04:10:01;;;;;;;0.10;0.10;;;;;;;7.48;67.96;98878.92;128465;1108;115391;-84
2021/05/26 04:12:28;;;;;;;0.20;0.20;;;;;;;7.56;68.19;98875.66;128476;1108;116231;-84
2021/05/26 04:14:57;;;;;;;0.20;0.20;;;;;;;7.67;68.35;98873.73;128429;1108;115894;-84
2021/05/26 04:17:24;;;;;;;0.18;0.18;;;;;;;7.79;68.27;98874.19;129314;1107;22517;-84
2021/05/26 04:19:51;;;;;;;0.10;0.10;;;;;;;7.92;68.07;98878.91;128492;1108;115173;-84
2021/05/26 04:22:17;;;;;;;0.10;0.10;;;;;;;8.05;67.29;98874.79;128499;1107;116103;-84
2021/05/26 04:24:44;;;;;;;0.10;0.10;;;;;;;8.16;67.32;98883.56;128472;1108;115865;-84
2021/05/26 04:27:10;;;;;;;0.20;0.20;;;;;;;8.27;67.11;98896.61;128472;1107;115529;-83
2021/05/26 04:29:37;;;;;;;0.20;0.20;;;;;;;8.37;66.81;98893.09;129297;1107;22556;-83
2021/05/26 04:32:04;;;;;;;0.10;0.10;;;;;;;8.45;66.93;98894.34;128544;1107;114570;-83
2021/05/26 04:34:31;;;;;;;0.10;0.10;;;;;;;8.51;66.76;98891.33;128473;1108;115014;-83
2021/05/26 04:36:58;;;;;;;0.20;0.20;;;;;;;8.57;67.50;98879.48;128472;1107;115453;-83
2021/05/26 04:39:24;;;;;;;0.05;0.05;;;;;;;8.62;67.28;98891.25;128453;1108;116055;-83
2021/05/26 04:41:50;;;;;;;0.13;0.13;;;;;;;8.67;67.22;98878.56;128498;1108;115373;-84
2021/05/26 04:44:16;;;;;;;0.20;0.20;;;;;;;8.74;67.04;98875.55;129306;1108;23591;-83
2021/05/26 04:46:42;;;;;;;0.35;0.20;;;;;;;8.77;67.49;98873.10;128468;1108;115195;-83
2021/05/26 04:49:08;;;;;;;0.18;0.18;;;;;;;8.83;67.00;98877.31;128475;1108;115685;-83
2021/05/26 04:51:34;;;;;;;0.10;0.10;;;;;;;8.89;67.07;98885.34;128477;1108;115459;-83
2021/05/26 04:54:00;;;;;;;0.10;0.10;;;;;;;8.97;67.29;98884.71;128482;1108;115957;-83
2021/05/26 04:56:26;;;;;;;0.10;0.10;;;;;;;9.10;67.03;98878.64;129310;1108;22543;-83
2021/05/26 04:58:52;;;;;;;0.13;0.13;;;;;;;9.26;67.44;98876.56;128471;1108;115167;-83
2021/05/26 05:01:21;;;;;;;0.20;0.20;;;;;;;9.42;67.14;98879.86;128502;1107;116385;-83
2021/05/26 05:03:47;;;;;;;0.10;0.10;;;;;;;9.58;65.91;98876.67;128529;1108;115757;-83
2021/05/26 05:06:13;;;;;;;0.40;0.13;;;;;;;9.75;66.07;98876.19;128468;1108;115509;-83
2021/05/26 05:08:39;;;;;;;0.10;0.10;;;;;;;9.91;65.86;98882.13;128572;1108;22516;-83
2021/05/26 05:11:05;;;;;;;0.43;0.30;;;;;;;10.06;65.62;98891.84;128480;1108;115423;-83
2021/05/26 05:13:31;;;;;;;0.20;0.20;;;;;;;10.21;64.86;98885.42;129434;1108;22622;-83
2021/05/26 05:15:58;;;;;;;0.35;0.35;;;;;;;10.34;65.29;98889.31;128491;1108;115580;-85
2021/05/26 05:18:24;;;;;;;0.20;0.20;;;;;;;10.43;64.40;98892.91;128089;1108;116572;-84
2021/05/26 05:20:50;;;;;;;0.10;0.10;;;;;;;10.53;63.84;98896.23;128445;1107;115404;-84
2021/05/26 05:23:16;;;;;;;0.30;0.30;;;;;;;10.64;63.74;98896.05;129299;1108;22609;-84
2021/05/26 05:25:42;;;;;;;0.20;0.20;;;;;;;10.72;63.78;98898.05;128440;1108;116057;-85
2021/05/26 05:28:09;;;;;;;0.68;0.38;;;;;;;10.80;63.72;98902.75;128481;1108;115348;-84
2021/05/26 05:30:35;;;;;;;0.20;0.20;;;;;;;10.86;63.42;98906.96;128468;1108;115641;-84
2021/05/26 05:33:02;;;;;;;0.20;0.20;;;;;;;10.93;63.17;98893.10;128463;1107;115763;-84
2021/05/26 05:35:28;;;;;;;0.20;0.20;;;;;;;10.98;63.04;98893.00;129260;1108;22574;-84
2021/05/26 05:37:54;;;;;;;0.30;0.30;;;;;;;11.06;63.19;98894.99;128453;1108;115460;-86
2021/05/26 05:40:21;;;;;;;0.20;0.20;;;;;;;11.16;63.86;98894.81;128525;1107;116175;-83
2021/05/26 05:42:47;;;;;;;0.10;0.10;;;;;;;11.26;63.68;98896.48;128455;1108;116151;-84
2021/05/26 05:45:13;;;;;;;0.20;0.20;;;;;;;11.36;63.24;98898.16;128446;1108;116387;-83
2021/05/26 05:47:39;;;;;;;0.30;0.30;;;;;;;11.46;63.22;98898.76;129240;1108;22594;-82
2021/05/26 05:50:14;;;;;;;0.40;0.40;;;;;;;11.55;62.53;98902.36;129160;1108;113734;-81
2021/05/26 05:52:40;;;;;;;0.20;0.20;;;;;;;11.67;63.16;98907.23;128405;1108;115774;-80
2021/05/26 05:55:08;;;;;;;0.30;0.30;;;;;;;11.79;61.92;98906.70;128418;1108;116060;-80
2021/05/26 05:57:34;;;;;;;0.20;0.20;;;;;;;11.88;61.84;98893.31;128388;1108;116061;-80
2021/05/26 06:00:00;;;;;;;0.20;0.20;;;;;;;11.99;61.40;98902.78;128443;1108;115752;-80
2021/05/26 06:02:27;;;;;;;0.20;0.20;;;;;;;12.09;61.30;98904.43;129310;1107;23099;-80
2021/05/26 06:04:53;;;;;;;0.20;0.20;;;;;;;12.18;60.73;98905.28;128454;1107;115853;-82
2021/05/26 06:07:20;;;;;;;0.20;0.20;;;;;;;12.27;59.76;98901.56;128454;1108;115592;-79
2021/05/26 06:09:46;;;;;;;0.18;0.18;;;;;;;12.36;59.44;98919.72;128359;1107;115743;-80
2021/05/26 06:12:12;;;;;;;0.20;0.20;;;;;;;12.47;59.60;98921.07;128472;1104;116353;-81
2021/05/26 06:14:38;;;;;;;0.35;0.35;;;;;;;12.58;59.68;98910.81;129253;1108;23325;-81
2021/05/26 06:17:04;;;;;;;0.30;0.30;;;;;;;12.68;59.08;98908.63;128463;1108;115242;-80
2021/05/26 06:19:30;;;;;;;0.20;0.20;;;;;;;12.77;58.26;98917.59;128478;1108;115853;-79
2021/05/26 06:21:56;;;;;;;0.55;0.30;;;;;;;12.88;58.04;98920.81;128442;1108;115825;-80
2021/05/26 06:24:23;;;;;;;0.28;0.28;;;;;;;12.99;57.56;98922.14;128530;1108;115824;-79
2021/05/26 06:26:49;;;;;;;0.48;0.33;;;;;;;13.11;56.95;98916.14;128519;1107;115809;-79
2021/05/26 06:29:15;;;;;;;0.38;0.38;;;;;;;13.21;56.69;98915.08;129335;1108;22537;-80
2021/05/26 06:31:41;;;;;;;0.90;0.30;;;;;;;13.30;55.65;98915.14;128491;1108;115742;-80
2021/05/26 06:34:08;;;;;;;0.30;0.30;;;;;;;13.35;55.83;98904.95;128483;1107;116429;-80
2021/05/26 06:36:34;;;;;;;0.30;0.30;;;;;;;13.45;55.94;98901.97;128476;1108;116121;-81
2021/05/26 06:39:02;;;;;;;0.30;0.30;;;;;;;13.56;55.85;98901.66;128529;1108;116712;-79
2021/05/26 06:41:28;;;;;;;0.40;0.40;;;;;;;13.65;55.11;98897.87;129320;1108;22612;-79
2021/05/26 06:43:55;;;;;;;0.40;0.40;;;;;;;13.74;54.25;98901.38;128519;1108;115232;-79
2021/05/26 06:46:21;;;;;;;0.30;0.30;;;;;;;13.84;52.84;98899.48;128452;1108;115654;-79
2021/05/26 06:48:47;;;;;;;0.20;0.20;;;;;;;13.90;53.42;98898.99;128528;1108;115835;-79
2021/05/26 06:51:14;;;;;;;0.20;0.20;;;;;;;13.97;53.00;98904.73;128525;1108;116595;-79
2021/05/26 06:53:40;;;;;;;0.38;0.38;;;;;;;14.08;53.39;98904.43;129356;1108;22503;-80
2021/05/26 06:56:05;;;;;;;0.30;0.30;;;;;;;14.19;53.28;98902.99;129270;1108;113467;-80
2021/05/26 06:58:31;;;;;;;0.23;0.23;;;;;;;14.28;52.07;98892.94;128508;1108;115708;-79
2021/05/26 07:00:58;;;;;;;0.45;0.40;;;;;;;14.36;52.31;98896.75;128429;1108;116272;-80
2021/05/26 07:03:24;;;;;;;0.20;0.20;;;;;;;14.49;52.81;98895.80;128493;1107;115779;-80
2021/05/26 07:05:50;;;;;;;0.20;0.20;;;;;;;14.58;51.86;98891.17;128610;1107;115344;-80
2021/05/26 07:08:16;;;;;;;0.20;0.20;;;;;;;14.69;51.56;98892.39;129332;1108;22597;-79
2021/05/26 07:10:42;;;;;;;0.30;0.30;;;;;;;14.79;51.13;98891.26;128521;1108;115905;-79
2021/05/26 07:13:09;;;;;;;0.30;0.30;;;;;;;14.85;49.61;98902.70;128519;1107;115673;-79
2021/05/26 07:15:36;;;;;;;0.30;0.30;;;;;;;14.92;50.70;98895.66;128516;1108;115989;-79
2021/05/26 07:18:05;;;;;;;0.40;0.40;;;;;;;15.03;50.40;98892.61;128467;1108;116092;-79
2021/05/26 07:20:32;;;;;;;0.20;0.20;;;;;;;15.10;50.47;98893.69;129396;1108;22514;-79
2021/05/26 07:22:58;;;;;;;0.28;0.28;;;;;;;15.17;49.79;98885.84;128521;1108;114954;-79
2021/05/26 07:25:25;;;;;;;0.40;0.40;;;;;;;15.25;48.29;98888.81;128487;1108;115251;-81
2021/05/26 07:27:51;;;;;;;0.33;0.33;;;;;;;15.33;49.36;98893.43;128506;1108;115728;-80
2021/05/26 07:30:18;;;;;;;0.20;0.20;;;;;;;15.42;49.90;98894.16;128493;1108;115820;-80
2021/05/26 07:32:45;;;;;;;0.30;0.30;;;;;;;15.52;49.26;98898.41;128559;1108;115911;-79
2021/05/26 07:35:12;;;;;;;0.28;0.28;;;;;;;15.62;49.24;98898.83;129373;1108;22501;-80
2021/05/26 07:37:39;;;;;;;0.30;0.30;;;;;;;15.66;48.71;98901.70;128510;1108;115826;-78
2021/05/26 07:40:11;;;;;;;0.75;0.40;;;;;;;15.74;48.17;98897.34;128464;1108;115888;-81
2021/05/26 07:42:37;;;;;;;0.50;0.50;;;;;;;15.79;47.95;98903.36;128499;1108;115977;-80
2021/05/26 07:45:05;;;;;;;0.25;0.25;;;;;;;15.88;48.19;98903.33;128504;1108;115889;-80
2021/05/26 07:47:31;;;;;;;0.40;0.40;;;;;;;15.98;48.42;98900.19;129374;1108;22543;-80
2021/05/26 07:49:57;;;;;;;0.20;0.20;;;;;;;16.13;48.58;98898.80;128544;1108;115673;-81
2021/05/26 07:52:25;;;;;;;0.30;0.30;;;;;;;16.24;48.00;98902.70;128516;1108;115737;-82
2021/05/26 07:54:51;;;;;;;0.40;0.40;;;;;;;16.32;47.57;98896.39;128514;1108;115392;-81
2021/05/26 07:57:17;;;;;;;0.35;0.35;;;;;;;16.39;46.65;98887.70;128484;1108;115979;-79
2021/05/26 07:59:45;;;;;;;0.30;0.30;;;;;;;16.48;47.02;98901.20;128522;1108;116159;-81
2021/05/26 08:02:13;;;;;;;0.20;0.20;;;;;;;16.54;45.58;98888.97;129356;1107;22611;-81
2021/05/26 08:04:40;;;;;;;0.30;0.30;;;;;;;16.61;45.00;98889.22;128498;1108;115728;-81
2021/05/26 08:07:09;;;;;;;0.58;0.30;;;;;;;16.64;44.84;98878.47;128453;1108;115640;-82
2021/05/26 08:09:39;;;;;;;0.40;0.40;;;;;;;16.68;43.82;98884.81;128451;1108;115446;-82
2021/05/26 08:12:08;;;;;;;0.40;0.40;;;;;;;16.73;42.10;98875.67;128440;1107;115870;-82
2021/05/26 08:14:35;;;;;;;0.40;0.40;;;;;;;16.80;44.15;98875.13;129350;1108;22556;-79
2021/05/26 08:17:02;;;;;;;0.33;0.33;;;;;;;16.90;44.61;98875.48;128513;1108;115472;-82
2021/05/26 08:19:28;;;;;;;0.30;0.30;;;;;;;16.99;42.70;98880.81;128502;1108;115854;-79
2021/05/26 08:21:55;;;;;;;0.50;0.50;;;;;;;17.06;43.95;98878.33;128480;1108;116233;-82
2021/05/26 08:24:21;;;;;;;0.30;0.30;;;;;;;17.12;44.28;98874.23;128447;1108;116098;-82
2021/05/26 08:26:51;;;;;;;0.30;0.30;;;;;;;17.21;43.94;98874.11;128563;1107;115307;-82
2021/05/26 08:29:18;;;;;;;0.40;0.40;;;;;;;17.30;44.00;98874.02;129307;1108;22521;-79
2021/05/26 08:31:45;;;;;;;0.40;0.40;;;;;;;17.38;43.98;98864.94;128493;1108;115415;-79
2021/05/26 08:34:11;;;;;;;0.20;0.20;;;;;;;17.42;42.91;98866.63;128472;1108;115884;-81
2021/05/26 08:36:38;;;;;;;0.28;0.28;;;;;;;17.45;43.50;98869.79;128482;1108;116474;-80
2021/05/26 08:39:05;;;;;;;0.40;0.40;;;;;;;17.50;43.31;98864.13;128542;1108;115641;-82
2021/05/26 08:41:31;;;;;;;0.30;0.30;;;;;;;17.50;40.24;98862.20;129346;1108;22517;-81
2021/05/26 08:43:58;;;;;;;0.30;0.30;;;;;;;17.52;42.39;98857.19;128467;1108;115875;-80
2021/05/26 08:46:25;;;;;;;0.40;0.40;;;;;;;17.63;42.74;98857.52;128491;1108;115524;-81
2021/05/26 08:48:53;;;;;;;0.30;0.30;;;;;;;17.71;42.32;98853.07;128487;1108;116006;-80
2021/05/26 08:51:22;;;;;;;0.30;0.30;;;;;;;17.73;41.28;98859.77;128516;1108;115205;-81
2021/05/26 08:53:48;;;;;;;0.40;0.40;;;;;;;17.74;41.09;98842.28;128477;1108;116001;-80
2021/05/26 08:56:15;;;;;;;0.35;0.35;;;;;;;17.80;40.83;98851.84;129301;1108;22516;-81
2021/05/26 08:58:43;;;;;;;0.40;0.40;;;;;;;17.83;41.45;98853.85;128489;1108;115430;-80
2021/05/26 09:01:09;;;;;;;0.35;0.35;;;;;;;17.88;40.57;98844.64;128487;1107;116132;-80
2021/05/26 09:03:35;;;;;;;0.50;0.50;;;;;;;17.89;40.03;98848.97;127692;1108;115509;-80
2021/05/26 09:06:05;;;;;;;0.53;0.53;;;;;;;17.90;39.49;98845.09;128496;1108;116143;-80
2021/05/26 09:08:31;;;;;;;0.30;0.30;;;;;;;17.96;39.43;98845.63;129304;1107;22521;-80
2021/05/26 09:11:02;;;;;;;0.40;0.40;;;;;;;18.00;39.90;98841.08;128504;1108;116082;-80
2021/05/26 09:13:39;;;;;;;0.73;0.50;;;;;;;18.05;39.64;98838.91;128506;1108;115966;-80
2021/05/26 09:16:29;;;;;;;0.60;0.60;;;;;;;18.13;39.73;98840.69;128489;1108;116238;-80
2021/05/26 09:19:06;;;;;;;0.30;0.30;;;;;;;18.20;38.92;98829.20;128503;1107;115650;-80
2021/05/26 09:21:55;;;;;;;0.30;0.30;;;;;;;18.28;38.50;98822.01;128478;1107;115303;-79
2021/05/26 09:24:30;;;;;;;0.40;0.40;;;;;;;18.35;35.50;98822.98;128498;1107;116709;-79
2021/05/26 09:27:02;;;;;;;0.40;0.40;;;;;;;18.38;37.18;98824.20;128488;1108;116019;-79
2021/05/26 09:29:30;;;;;;;0.40;0.40;;;;;;;18.42;37.47;98813.39;129309;1108;23101;-80
2021/05/26 09:32:10;;;;;;;0.35;0.35;;;;;;;18.45;36.88;98818.94;128456;1108;115451;-78
2021/05/26 09:34:44;;;;;;;0.35;0.35;;;;;;;18.45;37.29;98823.60;128497;1108;115342;-79
2021/05/26 09:37:18;;;;;;;0.43;0.43;;;;;;;18.55;37.43;98817.61;128513;1107;116462;-81
2021/05/26 09:39:52;;;;;;;0.40;0.40;;;;;;;18.61;36.39;98806.10;128494;1107;115921;-79
2021/05/26 09:42:37;;;;;;;0.40;0.40;;;;;;;18.68;33.94;98818.34;128506;1107;116331;-80
2021/05/26 09:45:35;;;;;;;0.30;0.30;;;;;;;18.79;36.58;98814.77;128565;1108;115826;-79
2021/05/26 09:48:02;;;;;;;0.30;0.30;;;;;;;18.86;36.76;98806.76;128500;1107;116311;-78
2021/05/26 09:50:34;;;;;;;0.40;0.40;;;;;;;18.97;37.64;98800.74;129308;1107;22575;-78
2021/05/26 09:53:12;;;;;;;0.48;0.48;;;;;;;19.11;37.22;98815.52;128512;1107;115919;-80
2021/05/26 09:55:46;;;;;;;0.30;0.30;;;;;;;19.14;36.77;98803.11;128464;1108;117276;-79
2021/05/26 09:58:14;;;;;;;0.50;0.50;;;;;;;19.14;36.91;98794.92;128451;1107;116311;-79
2021/05/26 10:00:42;;;;;;;0.40;0.40;;;;;;;19.19;36.93;98793.84;128504;1108;115390;-79
2021/05/26 10:03:08;;;;;;;0.40;0.40;;;;;;;19.27;37.29;98790.91;128517;1108;115705;-79
2021/05/26 10:05:35;;;;;;;0.50;0.50;;;;;;;19.36;37.46;98793.44;129302;1107;22524;-79
2021/05/26 10:08:12;;;;;;;0.50;0.50;;;;;;;19.42;37.54;98781.09;128525;1108;115764;-79
2021/05/26 10:10:40;;;;;;;0.38;0.38;;;;;;;19.56;37.70;98781.38;128459;1108;116530;-79
2021/05/26 10:13:11;;;;;;;0.37;0.37;;;;;;;19.72;37.29;98794.20;128511;1108;115447;-80
2021/05/26 10:15:39;;;;;;;0.43;0.43;;;;;;;19.78;36.62;98776.39;128461;1108;115907;-79
2021/05/26 10:18:06;;;;;;;0.43;0.40;;;;;;;19.85;36.35;98782.00;128515;1108;115395;-79
2021/05/26 10:20:36;;;;;;;0.38;0.38;;;;;;;19.80;36.43;98766.66;129348;1108;22595;-79
2021/05/26 10:23:05;;;;;;;0.40;0.40;;;;;;;19.85;36.55;98768.34;128508;1108;115480;-80
2021/05/26 10:25:31;;;;;;;0.60;0.60;;;;;;;19.94;36.58;98765.38;128611;1108;115766;-80
2021/05/26 10:27:58;;;;;;;0.40;0.40;;;;;;;19.99;36.25;98765.86;128487;1108;115769;-80
2021/05/26 10:30:27;;;;;;;0.50;0.50;;;;;;;20.04;36.58;98756.56;128452;1108;116220;-80
2021/05/26 10:32:55;;;;;;;0.55;0.55;;;;;;;20.11;36.29;98749.28;128514;1107;115745;-80
2021/05/26 10:35:30;;;;;;;0.50;0.50;;;;;;;20.26;36.30;98758.53;129359;1108;23321;-79
2021/05/26 10:37:56;;;;;;;0.40;0.40;;;;;;;20.38;36.11;98754.83;127810;1108;115583;-79
2021/05/26 10:40:30;;;;;;;0.40;0.40;;;;;;;20.55;35.74;98750.83;128587;1108;115387;-80
2021/05/26 10:42:57;;;;;;;0.48;0.48;;;;;;;20.62;35.45;98745.48;128524;1107;115427;-81
2021/05/26 10:45:35;;;;;;;0.40;0.40;;;;;;;20.70;35.11;98749.91;128436;1107;116052;-80
2021/05/26 10:48:01;;;;;;;0.60;0.60;;;;;;;20.76;34.97;98742.19;128494;1108;116250;-80
2021/05/26 10:50:52;;;;;;;0.60;0.60;;;;;;;20.81;34.83;98737.17;129268;1108;22572;-79
2021/05/26 10:53:19;;;;;;;0.67;0.53;;;;;;;20.92;35.08;98739.30;129313;1108;22570;-79
2021/05/26 10:55:46;;;;;;;0.60;0.60;;;;;;;21.04;34.75;98734.38;128474;1108;116287;-79
2021/05/26 10:58:17;;;;;;;0.58;0.58;;;;;;;21.11;33.27;98732.91;128477;1108;115566;-79
2021/05/26 11:00:51;;;;;;;0.63;0.63;;;;;;;21.24;34.66;98731.52;128514;1108;115598;-80
2021/05/26 11:03:27;;;;;;;0.60;0.60;;;;;;;21.44;34.99;98723.97;128458;1108;116310;-80
2021/05/26 11:05:54;;;;;;;0.80;0.80;;;;;;;21.60;34.67;98719.06;128553;1108;115639;-80
2021/05/26 11:08:48;;;;;;;0.50;0.50;;;;;;;21.70;34.37;98721.16;129417;1107;22699;-80
2021/05/26 11:11:44;;;;;;;0.30;0.30;;;;;;;21.89;33.36;98722.92;129377;1108;22511;-81
2021/05/26 11:16:46;;;;;;;0.43;0.43;;;;;;;21.94;32.94;98719.84;128516;1108;115452;-81
2021/05/26 11:19:23;;;;;;;0.60;0.60;;;;;;;21.92;32.20;98716.67;128538;1107;116361;-81
2021/05/26 11:22:01;;;;;;;0.50;0.50;;;;;;;21.94;31.95;98706.13;128564;1108;115779;-81
2021/05/26 11:24:36;;;;;;;0.70;0.70;;;;;;;22.01;31.52;98708.16;128488;1108;116437;-81
2021/05/26 11:27:12;;;;;;;0.50;0.50;;;;;;;22.04;29.56;98705.42;128496;1108;115536;-81
2021/05/26 11:29:38;;;;;;;0.50;0.50;;;;;;;22.09;31.13;98698.83;129308;1108;22968;-80